Latest Coastal Weather Observations for Orbost

IDV60701

Issued at 4:05 am EST Saturday 30 August 2014 (issued every 10 minutes, with the page automatically refreshed every 10 minutes)

About coastal observations | Map of coastal stations | Coastal observations for VIC | Marine services | Other Formats
Station Details ID: 084145 Name: ORBOST Lat: -37.69 Lon: 148.47 Height: 62.65 m
Data from the previous 72 hours. | See also: Recent months at Orbost
Date/Time
EST
Temp

°C
Wind Pressure Rain
since 9am
mm
Weather Cloud Vis
km
Sea
Height
m
Swell
Dir
 
Speed
knots
Gust
knots
hPa Trend Height
m
Period
s
Dir
30/04:00am 5.5 NNW 0 0 1028.3 - 0.2 - - - - - - -
30/03:30am 6.0 CALM 0 0 1028.4 - 0.2 - - - - - - -
30/03:00am 6.2 CALM 0 0 1028.4 - 0.2 - - - - - - -
30/02:30am 6.4 CALM 0 0 1028.5 - 0.2 - - - - - - -
30/02:00am 6.9 CALM 0 0 1028.6 - 0.2 - - - - - - -
30/01:30am 7.0 CALM 0 1 1028.8 - 0.2 - - - - - - -
30/01:00am 6.7 CALM 0 0 1028.9 - 0.2 - - - - - - -
30/12:30am 8.4 CALM 0 0 1028.9 - 0.2 - - - - - - -
30/12:00am 8.5 NW 0 0 1029.0 - 0.2 - - - - - - -
 
Date/Time
EST
Temp

°C
Wind Pressure Rain
since 9am
mm
Weather Cloud Vis
km
Sea
Height
m
Swell
Dir
 
Speed
knots
Gust
knots
hPa Trend Height
m
Period
s
Dir
29/11:30pm 8.7 CALM 0 0 1029.1 - 0.2 - - - - - - -
29/11:00pm 8.2 CALM 0 2 1028.9 - 0.2 - - - - - - -
29/10:30pm 8.9 CALM 0 1 1028.9 - 0.2 - - - - - - -
29/10:00pm 10.4 ENE 1 3 1029.0 - 0.2 - - - - - - -
29/09:30pm 10.2 ENE 2 3 1029.0 - 0.2 - - - - - - -
29/09:00pm 10.0 E 3 5 1028.9 - 0.2 - - - - - - -
29/08:30pm 10.3 E 3 5 1028.9 - 0.2 - - - - - - -
29/08:00pm 10.4 E 2 5 1028.9 - 0.2 - - - - - - -
29/07:30pm 11.0 E 3 5 1028.8 - 0.2 - - - - - - -
29/07:00pm 10.6 ESE 2 2 1028.7 - 0.2 - - - - - - -
29/06:30pm 11.5 ESE 2 3 1028.4 - 0.2 - - - - - - -
29/06:00pm 12.1 ESE 2 4 1028.2 - 0.2 - - - - - - -
29/05:30pm 13.3 ESE 3 7 1027.9 - 0.2 - - - - - - -
29/05:00pm 14.2 SE 4 5 1027.7 - 0.2 - - - - - - -
29/04:30pm 14.7 SE 4 8 1027.5 - 0.2 - - - - - - -
29/04:00pm 14.8 S 4 8 1027.5 - 0.2 - - - - - - -
29/03:30pm 14.7 SSE 5 8 1027.3 - 0.2 - - - - - - -
29/03:00pm 14.7 SSE 6 9 1027.5 - 0.2 - - - - - - -
29/02:30pm 14.9 SSE 5 7 1027.6 - 0.2 - - - - - - -
29/02:00pm 15.1 S 6 9 1027.7 - 0.2 - - - - - - -
29/01:30pm 15.1 SSE 5 8 1027.9 - 0.2 - - - - - - -
29/01:00pm 15.1 SSE 5 9 1028.3 - 0.2 - - - - - - -
29/12:30pm 15.4 SSE 5 9 1028.4 - 0.2 - - - - - - -
29/12:00pm 15.1 S 3 4 1028.8 - 0.2 - - - - - - -
29/11:30am 14.3 S 2 5 1029.2 - 0.2 - - - - - - -
29/11:00am 13.9 SSE 3 5 1029.3 - 0.2 - - - - - - -
29/10:30am 13.4 S 3 4 1029.3 - 0.2 - - - - - - -
29/10:00am 12.6 CALM 0 1 1029.4 - 0.2 - - - - - - -
29/09:30am 10.9 CALM 0 1 1029.6 - 0.0 - - - - - - -
29/09:00am 9.3 SW 1 2 1029.7 - 0.0 - - - - - - -
29/08:30am 8.2 CALM 0 0 1029.6 - 0.0 - - - - - - -
29/08:00am 7.0 SSE 1 2 1029.5 - 0.0 - - - - - - -
29/07:30am 6.5 N 3 4 1029.1 - 0.0 - - - - - - -
29/07:00am 5.3 CALM 0 1 1029.2 - 0.0 - - - - - - -
29/06:30am 5.7 CALM 0 0 1028.9 - 0.0 - - - - - - -
29/06:00am 5.8 CALM 0 0 1028.5 - 0.0 - - - - - - -
29/05:30am 5.9 CALM 0 1 1028.2 - 0.0 - - - - - - -
29/05:00am 5.9 NW 1 1 1028.2 - 0.0 - - - - - - -
29/04:30am 5.4 CALM 0 2 1027.9 - 0.0 - - - - - - -
29/04:00am 6.4 CALM 0 1 1027.8 - 0.0 - - - - - - -
29/03:30am 6.8 NW 1 2 1027.8 - 0.0 - - - - - - -
29/03:00am 6.7 NNE 2 2 1027.6 - 0.0 - - - - - - -
29/02:30am 6.9 NNW 1 1 1027.8 - 0.0 - - - - - - -
29/02:00am 6.7 N 2 2 1028.0 - 0.0 - - - - - - -
29/01:30am 7.0 N 1 1 1028.3 - 0.0 - - - - - - -
29/01:00am 7.5 CALM 0 0 1028.4 - 0.0 - - - - - - -
29/12:30am 7.5 CALM 0 2 1028.3 - 0.0 - - - - - - -
29/12:00am 7.2 CALM 0 0 1028.4 - 0.0 - - - - - - -
 
Date/Time
EST
Temp

°C
Wind Pressure Rain
since 9am
mm
Weather Cloud Vis
km
Sea
Height
m
Swell
Dir
 
Speed
knots
Gust
knots
hPa Trend Height
m
Period
s
Dir
28/11:30pm 8.0 CALM 0 0 1028.3 - 0.0 - - - - - - -
28/11:00pm 8.3 CALM 0 0 1028.4 - 0.0 - - - - - - -
28/10:30pm 8.4 N 1 2 1028.4 - 0.0 - - - - - - -
28/10:00pm 8.2 N 2 3 1028.6 - 0.0 - - - - - - -
28/09:30pm 8.3 N 2 2 1028.6 - 0.0 - - - - - - -
28/09:00pm 8.5 N 2 3 1028.6 - 0.0 - - - - - - -
28/08:30pm 9.6 NNW 1 2 1028.6 - 0.0 - - - - - - -
28/08:00pm 10.1 CALM 0 2 1028.4 - 0.0 - - - - - - -
28/07:30pm 10.3 CALM 0 0 1028.3 - 0.0 - - - - - - -
28/07:00pm 10.9 CALM 0 1 1028.2 - 0.0 - - - - - - -
28/06:30pm 10.6 ESE 2 2 1028.0 - 0.0 - - - - - - -
28/06:00pm 11.7 ESE 2 3 1027.9 - 0.0 - - - - - - -
28/05:30pm 13.1 SE 3 5 1027.6 - 0.0 - - - - - - -
28/05:00pm 14.4 SE 4 6 1027.4 - 0.0 - - - - - - -
28/04:30pm 15.0 SE 5 9 1027.3 - 0.0 - - - - - - -
28/04:00pm 15.6 SE 5 9 1027.3 - 0.0 - - - - - - -
28/03:30pm 16.0 SE 5 9 1027.3 - 0.0 - - - - - - -
28/03:00pm 16.4 SSE 4 8 1027.4 - 0.0 - - - - - - -
28/02:30pm 16.1 SSE 5 8 1027.6 - 0.0 - - - - - - -
28/02:00pm 16.1 S 5 8 1027.8 - 0.0 - - - - - - -
28/01:30pm 15.8 S 5 9 1028.0 - 0.0 - - - - - - -
28/01:00pm 16.2 SSE 4 7 1028.4 - 0.0 - - - - - - -
28/12:30pm 16.3 S 2 4 1028.6 - 0.0 - - - - - - -
28/12:00pm 15.4 S 3 5 1029.0 - 0.0 - - - - - - -
28/11:30am 14.9 S 2 5 1029.6 - 0.0 - - - - - - -
28/11:00am 14.1 SSW 2 4 1030.0 - 0.0 - - - - - - -
28/10:30am 13.1 SW 3 5 1030.2 - 0.0 - - - - - - -
28/10:00am 12.3 WSW 1 2 1030.3 - 0.0 - - - - - - -
28/09:30am 10.8 SW 1 3 1030.5 - 0.0 - - - - - - -
28/09:00am 10.6 N 1 3 1030.5 - 0.2 - - - - - - -
28/08:30am 8.4 CALM 0 0 1030.7 - 0.2 - - - - - - -
28/08:00am 7.0 CALM 0 0 1030.6 - 0.2 - - - - - - -
28/07:30am 6.2 N 2 3 1030.5 - 0.2 - - - - - - -
28/07:00am 5.4 NNW 3 4 1030.3 - 0.2 - - - - - - -
28/06:30am 3.6 WNW 2 3 1030.1 - 0.2 - - - - - - -
28/06:00am 3.4 CALM 0 2 1029.7 - 0.2 - - - - - - -
28/05:30am 4.2 CALM 0 3 1029.3 - 0.2 - - - - - - -
28/05:00am 5.8 NE 3 5 1029.2 - 0.2 - - - - - - -
28/04:30am 4.2 NNE 1 2 1029.1 - 0.2 - - - - - - -
28/04:00am 5.4 ENE 3 3 1029.2 - 0.2 - - - - - - -
28/03:30am 6.0 CALM 0 0 1029.0 - 0.2 - - - - - - -
28/03:00am 6.1 CALM 0 0 1028.8 - 0.2 - - - - - - -
28/02:30am 7.0 N 2 2 1028.8 - 0.2 - - - - - - -
28/02:00am 6.2 N 2 3 1028.9 - 0.2 - - - - - - -
28/01:30am 6.4 NW 1 2 1029.0 - 0.2 - - - - - - -
28/01:00am 6.9 NNE 1 4 1029.0 - 0.2 - - - - - - -
28/12:30am 7.6 N 1 3 1028.9 - 0.2 - - - - - - -
28/12:00am 7.6 CALM 0 0 1029.1 - 0.2 - - - - - - -
 
Date/Time
EST
Temp

°C
Wind Pressure Rain
since 9am
mm
Weather Cloud Vis
km
Sea
Height
m
Swell
Dir
 
Speed
knots
Gust
knots
hPa Trend Height
m
Period
s
Dir
27/11:30pm 7.0 N 3 4 1028.9 - 0.2 - - - - - - -
27/11:00pm 8.3 CALM 0 1 1029.1 - 0.2 - - - - - - -
27/10:30pm 9.4 ENE 2 4 1028.8 - 0.2 - - - - - - -
27/10:00pm 9.0 NNE 1 2 1028.8 - 0.2 - - - - - - -
27/09:30pm 8.9 CALM 0 0 1029.1 - 0.2 - - - - - - -
27/09:00pm 10.1 E 2 3 1029.0 - 0.2 - - - - - - -
27/08:30pm 10.9 ESE 3 5 1028.9 - 0.2 - - - - - - -
27/08:00pm 10.9 ESE 2 4 1028.8 - 0.2 - - - - - - -
27/07:30pm 10.9 E 3 5 1028.7 - 0.2 - - - - - - -
27/07:00pm 11.4 ESE 1 4 1028.5 - 0.2 - - - - - - -
27/06:30pm 11.9 ESE 3 5 1028.3 - 0.2 - - - - - - -
27/06:00pm 12.4 ESE 3 5 1028.0 - 0.2 - - - - - - -
27/05:30pm 13.0 SE 2 4 1027.7 - 0.2 - - - - - - -
27/05:00pm 14.4 SE 4 8 1027.7 - 0.2 - - - - - - -
27/04:30pm 15.4 SE 5 8 1027.5 - 0.2 - - - - - - -
27/04:00pm 16.2 SE 6 11 1027.3 - 0.2 - - - - - - -
27/03:30pm 16.8 SE 6 12 1027.2 - 0.2 - - - - - - -
27/03:00pm 17.3 SSE 5 7 1027.2 - 0.2 - - - - - - -
27/02:30pm 17.7 ESE 5 8 1027.4 - 0.2 - - - - - - -
27/02:00pm 17.6 ESE 5 9 1027.5 - 0.2 - - - - - - -
27/01:30pm 17.5 ESE 5 10 1027.6 - 0.2 - - - - - - -
27/01:00pm 17.5 ESE 5 8 1027.8 - 0.2 - - - - - - -
27/12:30pm 17.1 E 5 8 1028.2 - 0.2 - - - - - - -
27/12:00pm 16.9 ENE 6 11 1028.5 - 0.2 - - - - - - -
27/11:30am 16.8 E 5 8 1028.9 - 0.2 - - - - - - -
27/11:00am 16.1 ENE 6 10 1029.3 - 0.2 - - - - - - -
27/10:30am 14.8 SE 3 5 1029.5 - 0.2 - - - - - - -
27/10:00am 14.0 SSE 2 3 1029.6 - 0.0 - - - - - - -
27/09:30am 11.3 S 1 2 1029.7 - 0.0 - - - - - - -
27/09:00am 10.0 W 1 2 1029.6 - 0.0 - - - - - - -
27/08:30am 8.8 SE 2 4 1029.5 - 0.0 - - - - - - -
27/08:00am 7.0 CALM 0 1 1029.4 - 0.0 - - - - - - -
27/07:30am 5.5 CALM 0 0 1029.3 - 0.0 - - - - - - -
27/07:00am 5.5 CALM 0 0 1028.9 - 0.0 - - - - - - -
27/06:30am 5.2 CALM 0 0 1028.5 - 0.0 - - - - - - -
27/06:00am 5.7 CALM 0 0 1028.4 - 0.0 - - - - - - -
27/05:30am 6.0 SE 2 3 1028.0 - 0.0 - - - - - - -
27/05:00am 5.8 NW 1 1 1027.8 - 0.0 - - - - - - -
27/04:30am 6.2 NNE 1 3 1027.9 - 0.0 - - - - - - -

Other Formats:

Comma delimited format used in spreadsheet applications
http://www.bom.gov.au/fwo/IDV60701/IDV60701.95918.axf

JavaScript Object Notation format (JSON) in row-major order
http://www.bom.gov.au/fwo/IDV60701/IDV60701.95918.json